Time;durP1;ratioP1;P1;durP2;ratioP2;P2;SDS_P1;SDS_P2;PMS_P1;PMS_P2;Temp;Humidity;BMP_temperature;BMP_pressure;BME280_temperature;BME280_humidity;BME280_pressure;Samples;Min_cycle;Max_cycle;Signal;HPM_P1;HPM_P2
2023/12/16 00:01:55;;;;;;;4.87;4.33;;;;;;;;;;5044020;28;20230;-79
2023/12/16 00:04:35;;;;;;;5.50;5.00;;;;;;;;;;5042644;28;20716;-79
2023/12/16 00:07:02;;;;;;;5.63;5.03;;;;;;;;;;5042432;28;20658;-81
2023/12/16 00:09:29;;;;;;;7.23;4.97;;;;;;;;;;5020048;28;20202;-81
2023/12/16 00:11:57;;;;;;;5.60;5.07;;;;;;;;;;5037252;28;20277;-81
2023/12/16 00:14:25;;;;;;;6.23;5.13;;;;;;;;;;5041144;28;20229;-81
2023/12/16 00:16:52;;;;;;;5.73;5.13;;;;;;;;;;5021956;28;20294;-80
2023/12/16 00:19:19;;;;;;;6.67;5.40;;;;;;;;;;5044977;28;20277;-81
2023/12/16 00:21:46;;;;;;;6.07;5.27;;;;;;;;;;5038193;28;20318;-81
2023/12/16 00:24:14;;;;;;;5.07;4.57;;;;;;;;;;5036521;28;20321;-79
2023/12/16 00:26:41;;;;;;;4.70;4.30;;;;;;;;;;5042678;28;20391;-78
2023/12/16 00:29:08;;;;;;;4.47;4.07;;;;;;;;;;5041129;28;20297;-79
2023/12/16 00:31:35;;;;;;;5.83;4.33;;;;;;;;;;5036265;28;20210;-77
2023/12/16 00:34:03;;;;;;;5.17;4.53;;;;;;;;;;5035274;28;20284;-81
2023/12/16 00:36:30;;;;;;;5.63;4.00;;;;;;;;;;5040573;28;20679;-80
2023/12/16 00:38:58;;;;;;;8.30;5.20;;;;;;;;;;5041102;28;20621;-80
2023/12/16 00:41:25;;;;;;;7.20;5.30;;;;;;;;;;5039332;28;20230;-80
2023/12/16 00:43:53;;;;;;;5.80;4.73;;;;;;;;;;5034918;28;20218;-81
2023/12/16 00:46:20;;;;;;;5.40;4.70;;;;;;;;;;5036128;28;20218;-79
2023/12/16 00:48:47;;;;;;;5.30;4.80;;;;;;;;;;5040239;28;20208;-76
2023/12/16 00:51:14;;;;;;;6.90;5.37;;;;;;;;;;5035762;28;20600;-78
2023/12/16 00:53:42;;;;;;;6.40;4.70;;;;;;;;;;5034665;28;20704;-80
2023/12/16 00:56:09;;;;;;;5.00;4.50;;;;;;;;;;5030696;28;20202;-80
2023/12/16 00:58:36;;;;;;;5.47;4.30;;;;;;;;;;5036088;28;20202;-81
2023/12/16 01:01:04;;;;;;;4.93;4.40;;;;;;;;;;5031557;28;20223;-78
2023/12/16 01:03:31;;;;;;;4.43;4.03;;;;;;;;;;5034069;28;20703;-79
2023/12/16 01:05:58;;;;;;;5.40;4.70;;;;;;;;;;5035223;28;20286;-81
2023/12/16 01:08:26;;;;;;;5.03;4.37;;;;;;;;;;5039372;28;20573;-79
2023/12/16 01:10:53;;;;;;;4.60;4.10;;;;;;;;;;5038382;28;20253;-78
2023/12/16 01:13:20;;;;;;;5.10;4.60;;;;;;;;;;5017596;28;20251;-78
2023/12/16 01:15:47;;;;;;;5.20;4.70;;;;;;;;;;5040848;28;20694;-79
2023/12/16 01:18:16;;;;;;;7.67;4.90;;;;;;;;;;5020634;28;20214;-79
2023/12/16 01:20:43;;;;;;;5.67;5.07;;;;;;;;;;5018558;28;20203;-75
2023/12/16 01:23:10;;;;;;;5.80;4.97;;;;;;;;;;5013600;28;21873;-79
2023/12/16 01:25:37;;;;;;;5.47;4.90;;;;;;;;;;5030835;28;20241;-80
2023/12/16 01:28:05;;;;;;;5.17;4.40;;;;;;;;;;5012244;28;20206;-79
2023/12/16 01:30:32;;;;;;;6.63;5.20;;;;;;;;;;5027889;28;20215;-81
2023/12/16 01:32:59;;;;;;;7.73;5.87;;;;;;;;;;5019667;28;20314;-81
2023/12/16 01:35:27;;;;;;;6.87;6.03;;;;;;;;;;5036440;28;20198;-79
2023/12/16 01:37:54;;;;;;;14.53;8.17;;;;;;;;;;5035151;28;20269;-80
2023/12/16 01:40:21;;;;;;;9.70;7.10;;;;;;;;;;5036710;28;20206;-78
2023/12/16 01:42:48;;;;;;;16.77;10.13;;;;;;;;;;5038170;28;20688;-75
2023/12/16 01:45:18;;;;;;;16.37;10.80;;;;;;;;;;5036513;28;20223;-79
2023/12/16 01:47:46;;;;;;;10.63;8.10;;;;;;;;;;5036388;28;20286;-79
2023/12/16 01:50:14;;;;;;;9.87;7.17;;;;;;;;;;5035783;28;20268;-79
2023/12/16 01:52:42;;;;;;;9.43;7.37;;;;;;;;;;5038299;28;20210;-77
2023/12/16 01:55:10;;;;;;;8.43;6.73;;;;;;;;;;5030808;28;20241;-80
2023/12/16 01:57:38;;;;;;;9.30;6.33;;;;;;;;;;5041015;28;20661;-80
2023/12/16 02:00:06;;;;;;;6.87;5.70;;;;;;;;;;5036446;28;20206;-78
2023/12/16 02:02:34;;;;;;;7.77;5.80;;;;;;;;;;5036671;28;20223;-77
2023/12/16 02:05:01;;;;;;;6.70;5.63;;;;;;;;;;5036401;28;20720;-80
2023/12/16 02:07:29;;;;;;;6.10;5.50;;;;;;;;;;5019251;28;20221;-75
2023/12/16 02:09:56;;;;;;;17.00;7.60;;;;;;;;;;5042814;28;20217;-79
2023/12/16 02:12:26;;;;;;;12.03;6.97;;;;;;;;;;5035834;28;20214;-79
2023/12/16 02:14:53;;;;;;;11.57;6.60;;;;;;;;;;5017236;28;20248;-78
2023/12/16 02:17:21;;;;;;;11.00;6.70;;;;;;;;;;5038319;28;20214;-77
2023/12/16 02:19:48;;;;;;;11.30;6.10;;;;;;;;;;5030661;28;20206;-79
2023/12/16 02:22:15;;;;;;;7.07;5.20;;;;;;;;;;5028841;28;20237;-77
2023/12/16 02:24:42;;;;;;;5.50;5.00;;;;;;;;;;5032688;28;20313;-80
2023/12/16 02:27:10;;;;;;;5.27;4.77;;;;;;;;;;5035977;28;20313;-79
2023/12/16 02:29:37;;;;;;;6.03;5.03;;;;;;;;;;5018498;28;20214;-79
2023/12/16 02:32:04;;;;;;;6.17;5.03;;;;;;;;;;5037221;28;20350;-79
2023/12/16 02:34:32;;;;;;;5.23;4.63;;;;;;;;;;5031195;28;20248;-80
2023/12/16 02:37:05;;;;;;;6.00;5.00;;;;;;;;;;5018887;28;20720;-80
2023/12/16 02:39:33;;;;;;;5.57;4.93;;;;;;;;;;5017356;28;20225;-78
2023/12/16 02:42:00;;;;;;;7.70;6.07;;;;;;;;;;5031734;28;20244;-79
2023/12/16 02:44:28;;;;;;;7.87;7.07;;;;;;;;;;5025284;28;20254;-80
2023/12/16 02:46:55;;;;;;;11.47;9.00;;;;;;;;;;5041387;28;20265;-77
2023/12/16 02:49:22;;;;;;;11.37;7.87;;;;;;;;;;5032933;28;20207;-80
2023/12/16 02:51:49;;;;;;;8.90;7.60;;;;;;;;;;5036535;28;20268;-80
2023/12/16 02:54:16;;;;;;;12.10;9.67;;;;;;;;;;5032602;28;20948;-79
2023/12/16 02:56:44;;;;;;;11.63;9.37;;;;;;;;;;5030869;28;20265;-78
2023/12/16 02:59:11;;;;;;;14.17;9.40;;;;;;;;;;5038356;28;20207;-78
2023/12/16 03:01:38;;;;;;;17.30;11.47;;;;;;;;;;5033135;28;20222;-79
2023/12/16 03:04:05;;;;;;;9.10;6.97;;;;;;;;;;5036672;28;20233;-78
2023/12/16 03:06:33;;;;;;;6.67;5.60;;;;;;;;;;5039997;28;20289;-78
2023/12/16 03:09:00;;;;;;;6.07;5.47;;;;;;;;;;5020288;28;20735;-80
2023/12/16 03:11:27;;;;;;;7.50;5.53;;;;;;;;;;5044469;28;20310;-81
2023/12/16 03:13:55;;;;;;;8.47;5.73;;;;;;;;;;5037529;28;20265;-79
2023/12/16 03:16:22;;;;;;;9.87;5.17;;;;;;;;;;5033511;28;20225;-79
2023/12/16 03:18:49;;;;;;;7.33;5.77;;;;;;;;;;5031353;28;20218;-79
2023/12/16 03:21:17;;;;;;;9.07;5.93;;;;;;;;;;5021296;28;20210;-80
2023/12/16 03:23:44;;;;;;;7.50;6.07;;;;;;;;;;5035703;28;20226;-80
2023/12/16 03:26:11;;;;;;;7.47;6.50;;;;;;;;;;5034132;28;20344;-79
2023/12/16 03:28:38;;;;;;;7.13;6.17;;;;;;;;;;5031082;28;20321;-81
2023/12/16 03:31:05;;;;;;;7.03;6.33;;;;;;;;;;5017289;28;20202;-79
2023/12/16 03:33:33;;;;;;;7.07;6.07;;;;;;;;;;5022150;28;20252;-80
2023/12/16 03:36:00;;;;;;;7.17;6.07;;;;;;;;;;5033305;28;20211;-80
2023/12/16 03:38:28;;;;;;;9.93;6.20;;;;;;;;;;5037472;28;20248;-79
2023/12/16 03:40:56;;;;;;;7.57;6.03;;;;;;;;;;5021071;28;20276;-79
2023/12/16 03:43:23;;;;;;;6.87;5.93;;;;;;;;;;5025696;28;20262;-81
2023/12/16 03:45:50;;;;;;;8.10;6.53;;;;;;;;;;5037896;28;20292;-80
2023/12/16 03:48:17;;;;;;;8.47;6.73;;;;;;;;;;5026026;28;20333;-80
2023/12/16 03:50:45;;;;;;;8.30;6.90;;;;;;;;;;5042051;28;21313;-80
2023/12/16 03:53:12;;;;;;;8.10;6.60;;;;;;;;;;5031687;28;20273;-78
2023/12/16 03:55:39;;;;;;;10.27;7.87;;;;;;;;;;5037082;28;20206;-80
2023/12/16 03:58:06;;;;;;;10.20;7.80;;;;;;;;;;5036351;28;20202;-76
2023/12/16 04:00:34;;;;;;;8.97;7.70;;;;;;;;;;5036526;28;20257;-79
2023/12/16 04:03:02;;;;;;;9.43;7.60;;;;;;;;;;5040251;28;20226;-78
2023/12/16 04:05:29;;;;;;;11.33;7.53;;;;;;;;;;5036599;28;20623;-77
2023/12/16 04:07:56;;;;;;;10.33;7.57;;;;;;;;;;5033260;28;20198;-80
2023/12/16 04:10:23;;;;;;;9.10;7.40;;;;;;;;;;5034063;28;20210;-81
2023/12/16 04:12:51;;;;;;;8.60;7.23;;;;;;;;;;5021255;28;20216;-78
2023/12/16 04:15:18;;;;;;;8.80;7.20;;;;;;;;;;5040945;28;20225;-80
2023/12/16 04:17:45;;;;;;;8.57;7.50;;;;;;;;;;5031702;28;21000;-79
2023/12/16 04:20:12;;;;;;;11.23;8.27;;;;;;;;;;5029800;28;20215;-80
2023/12/16 04:22:40;;;;;;;10.97;8.30;;;;;;;;;;5038452;28;20227;-79
2023/12/16 04:25:10;;;;;;;10.07;7.83;;;;;;;;;;5037649;28;20288;-79
2023/12/16 04:27:39;;;;;;;10.63;8.20;;;;;;;;;;5035545;28;20692;-80
2023/12/16 04:30:07;;;;;;;9.90;7.70;;;;;;;;;;5038051;28;20238;-81
2023/12/16 04:32:34;;;;;;;9.33;7.60;;;;;;;;;;5035839;28;20209;-76
2023/12/16 04:35:01;;;;;;;9.50;7.60;;;;;;;;;;5036545;28;20227;-80
2023/12/16 04:37:29;;;;;;;11.00;7.80;;;;;;;;;;5036077;28;20202;-79
2023/12/16 04:39:56;;;;;;;12.60;8.30;;;;;;;;;;5034693;28;20659;-81
2023/12/16 04:42:23;;;;;;;8.47;7.13;;;;;;;;;;5024420;28;20227;-80
2023/12/16 04:44:50;;;;;;;9.57;7.90;;;;;;;;;;5021700;28;20225;-80
2023/12/16 04:47:17;;;;;;;9.63;7.43;;;;;;;;;;5021052;28;20531;-79
2023/12/16 04:49:45;;;;;;;11.27;9.13;;;;;;;;;;5019291;28;20198;-80
2023/12/16 04:52:12;;;;;;;10.47;7.43;;;;;;;;;;5039609;28;20262;-79
2023/12/16 04:54:41;;;;;;;8.93;7.60;;;;;;;;;;5015899;28;20242;-80
2023/12/16 04:57:08;;;;;;;10.27;8.13;;;;;;;;;;5031488;28;20214;-79
2023/12/16 04:59:35;;;;;;;8.53;7.30;;;;;;;;;;5031055;28;20202;-79
2023/12/16 05:02:02;;;;;;;11.70;8.57;;;;;;;;;;5035479;28;20583;-79
2023/12/16 05:04:30;;;;;;;10.70;7.87;;;;;;;;;;5013258;28;20304;-81
2023/12/16 05:06:57;;;;;;;9.30;7.73;;;;;;;;;;5033678;28;20205;-79
2023/12/16 05:09:24;;;;;;;20.27;14.83;;;;;;;;;;5037213;28;20389;-77
2023/12/16 05:11:52;;;;;;;14.13;11.43;;;;;;;;;;5038369;28;20336;-80
2023/12/16 05:14:19;;;;;;;12.30;8.73;;;;;;;;;;5037752;28;20233;-80
2023/12/16 05:16:47;;;;;;;10.10;8.37;;;;;;;;;;5023022;28;20953;-77
2023/12/16 05:19:14;;;;;;;10.17;7.63;;;;;;;;;;5042081;28;20208;-79
2023/12/16 05:21:42;;;;;;;10.20;7.47;;;;;;;;;;5019681;28;20199;-78
2023/12/16 05:24:09;;;;;;;15.13;11.20;;;;;;;;;;5037625;28;20267;-78
2023/12/16 05:26:36;;;;;;;10.37;8.57;;;;;;;;;;5033414;28;20249;-80
2023/12/16 05:29:04;;;;;;;9.07;7.47;;;;;;;;;;5041439;28;20206;-79
2023/12/16 05:31:31;;;;;;;10.67;7.43;;;;;;;;;;5039163;28;20246;-79
2023/12/16 05:33:58;;;;;;;11.30;7.90;;;;;;;;;;5041446;28;20258;-79
2023/12/16 05:36:26;;;;;;;9.60;8.23;;;;;;;;;;5041771;28;20210;-79
2023/12/16 05:38:53;;;;;;;11.47;8.97;;;;;;;;;;5040380;28;20214;-81
2023/12/16 05:41:20;;;;;;;11.63;9.27;;;;;;;;;;5038338;28;20206;-79
2023/12/16 05:43:47;;;;;;;12.30;9.43;;;;;;;;;;5038985;28;20226;-78
2023/12/16 05:46:15;;;;;;;14.57;10.03;;;;;;;;;;5034961;28;20260;-78
2023/12/16 05:48:42;;;;;;;11.43;8.53;;;;;;;;;;5038698;28;20213;-78
2023/12/16 05:51:09;;;;;;;16.00;12.57;;;;;;;;;;5043048;28;20241;-81
2023/12/16 05:53:37;;;;;;;24.53;16.73;;;;;;;;;;5038812;28;20226;-80
2023/12/16 05:56:05;;;;;;;22.90;15.90;;;;;;;;;;5021063;28;20617;-79
2023/12/16 05:58:33;;;;;;;19.97;15.20;;;;;;;;;;5021934;28;20202;-80
2023/12/16 06:01:00;;;;;;;18.33;13.53;;;;;;;;;;5034823;28;20277;-81
2023/12/16 06:03:28;;;;;;;14.07;12.53;;;;;;;;;;5018437;28;20237;-80
2023/12/16 06:05:55;;;;;;;17.93;14.47;;;;;;;;;;5022092;28;20673;-78
2023/12/16 06:08:22;;;;;;;15.53;13.10;;;;;;;;;;5035828;28;20593;-75
2023/12/16 06:10:49;;;;;;;14.13;11.50;;;;;;;;;;5037618;28;20207;-78
2023/12/16 06:13:17;;;;;;;15.70;11.93;;;;;;;;;;5035009;28;20226;-79
2023/12/16 06:15:44;;;;;;;15.67;12.17;;;;;;;;;;5035824;28;20202;-82
2023/12/16 06:18:11;;;;;;;15.77;11.40;;;;;;;;;;5042188;28;20244;-80
2023/12/16 06:20:38;;;;;;;18.67;13.13;;;;;;;;;;5022873;28;20240;-81
2023/12/16 06:23:06;;;;;;;15.37;11.07;;;;;;;;;;5041557;28;20238;-79
2023/12/16 06:25:33;;;;;;;13.13;11.07;;;;;;;;;;5044505;28;22657;-81
2023/12/16 06:28:00;;;;;;;10.53;9.20;;;;;;;;;;5024018;28;20225;-80
2023/12/16 06:30:27;;;;;;;10.37;8.43;;;;;;;;;;5035814;28;20267;-80
2023/12/16 06:32:55;;;;;;;9.57;7.70;;;;;;;;;;5017277;28;20206;-81
2023/12/16 06:35:22;;;;;;;8.77;7.10;;;;;;;;;;5023608;28;20234;-81
2023/12/16 06:37:50;;;;;;;8.00;7.10;;;;;;;;;;5036462;28;20218;-80
2023/12/16 06:40:17;;;;;;;7.50;6.70;;;;;;;;;;5047449;28;20202;-78
2023/12/16 06:42:44;;;;;;;9.40;7.80;;;;;;;;;;5022860;28;20233;-81
2023/12/16 06:45:11;;;;;;;7.90;7.10;;;;;;;;;;5020251;28;20283;-80
2023/12/16 06:47:40;;;;;;;8.77;7.37;;;;;;;;;;5040770;28;20211;-77
2023/12/16 06:50:09;;;;;;;8.60;6.70;;;;;;;;;;5038966;28;20238;-79
2023/12/16 06:52:36;;;;;;;9.13;7.83;;;;;;;;;;5039062;28;20221;-79
2023/12/16 06:55:03;;;;;;;10.40;8.10;;;;;;;;;;5039899;28;20223;-79
2023/12/16 06:57:31;;;;;;;7.90;7.03;;;;;;;;;;5042788;28;20215;-79
2023/12/16 06:59:58;;;;;;;9.90;8.73;;;;;;;;;;5047064;28;20741;-79
2023/12/16 07:02:25;;;;;;;9.70;8.60;;;;;;;;;;5040665;28;20226;-79
2023/12/16 07:04:53;;;;;;;16.17;9.90;;;;;;;;;;5038960;28;20230;-79
2023/12/16 07:07:20;;;;;;;11.70;9.43;;;;;;;;;;5038300;28;20641;-79
2023/12/16 07:09:47;;;;;;;12.37;8.50;;;;;;;;;;5041648;28;20289;-80
2023/12/16 07:12:14;;;;;;;9.63;8.63;;;;;;;;;;5027556;28;20302;-81
2023/12/16 07:14:43;;;;;;;8.70;7.77;;;;;;;;;;5039657;28;20258;-78
2023/12/16 07:17:10;;;;;;;7.40;6.70;;;;;;;;;;5039367;28;20210;-78
2023/12/16 07:19:37;;;;;;;7.23;6.53;;;;;;;;;;5036284;28;20213;-78
2023/12/16 07:22:05;;;;;;;6.77;5.77;;;;;;;;;;5022859;28;20199;-82
2023/12/16 07:24:32;;;;;;;7.30;6.60;;;;;;;;;;5042302;28;20897;-79
2023/12/16 07:26:59;;;;;;;7.50;5.87;;;;;;;;;;5036450;28;20199;-80
2023/12/16 07:29:26;;;;;;;7.07;6.13;;;;;;;;;;5039937;28;20206;-79
2023/12/16 07:31:53;;;;;;;8.00;6.73;;;;;;;;;;5041682;28;20210;-80
2023/12/16 07:34:21;;;;;;;11.07;9.30;;;;;;;;;;5041680;28;20606;-79
2023/12/16 07:36:48;;;;;;;10.03;8.47;;;;;;;;;;5038902;28;20217;-80
2023/12/16 07:39:15;;;;;;;8.33;7.00;;;;;;;;;;5046032;28;20217;-80
2023/12/16 07:41:42;;;;;;;7.60;6.63;;;;;;;;;;5039341;28;20213;-79
2023/12/16 07:44:11;;;;;;;7.53;5.97;;;;;;;;;;5024729;28;20230;-80
2023/12/16 07:46:41;;;;;;;7.00;6.30;;;;;;;;;;5034117;28;21078;-79
2023/12/16 07:49:09;;;;;;;6.53;5.80;;;;;;;;;;5028451;28;20309;-78
2023/12/16 07:51:36;;;;;;;6.37;5.47;;;;;;;;;;5034803;28;20198;-79
2023/12/16 07:54:03;;;;;;;8.20;6.90;;;;;;;;;;5020654;28;20227;-79
2023/12/16 07:56:30;;;;;;;7.00;6.30;;;;;;;;;;5038717;28;20210;-79
2023/12/16 07:58:57;;;;;;;6.57;5.87;;;;;;;;;;5037904;28;20198;-81
2023/12/16 08:01:25;;;;;;;7.07;5.43;;;;;;;;;;5035826;28;20222;-79
2023/12/16 08:03:52;;;;;;;7.80;5.73;;;;;;;;;;5035024;28;20317;-79
2023/12/16 08:06:20;;;;;;;7.50;6.70;;;;;;;;;;5039081;28;20289;-79
2023/12/16 08:08:47;;;;;;;9.23;7.70;;;;;;;;;;5021412;28;20230;-79
2023/12/16 08:11:15;;;;;;;8.07;7.27;;;;;;;;;;5039450;28;20649;-81
2023/12/16 08:13:42;;;;;;;8.70;7.73;;;;;;;;;;5041442;28;20226;-79
2023/12/16 08:16:11;;;;;;;8.83;7.47;;;;;;;;;;5036545;28;20257;-77
2023/12/16 08:18:39;;;;;;;7.30;6.53;;;;;;;;;;5036175;28;20901;-78
2023/12/16 08:21:06;;;;;;;9.30;6.83;;;;;;;;;;5042102;28;20202;-78
2023/12/16 08:23:33;;;;;;;7.20;6.50;;;;;;;;;;5046852;28;20272;-79
2023/12/16 08:26:01;;;;;;;7.10;6.37;;;;;;;;;;5053866;28;20206;-78
2023/12/16 08:28:28;;;;;;;6.93;6.23;;;;;;;;;;5056519;28;20209;-78
2023/12/16 08:30:55;;;;;;;7.53;6.27;;;;;;;;;;5026733;28;20210;-78
2023/12/16 08:33:23;;;;;;;6.70;5.90;;;;;;;;;;5030074;28;20254;-76
2023/12/16 08:35:50;;;;;;;6.57;5.70;;;;;;;;;;5031984;28;20222;-79
2023/12/16 08:38:17;;;;;;;8.47;7.50;;;;;;;;;;5038694;28;20236;-80
2023/12/16 08:40:45;;;;;;;6.90;6.20;;;;;;;;;;5039121;28;20206;-78
2023/12/16 08:43:12;;;;;;;6.17;5.57;;;;;;;;;;5032426;28;20233;-80
2023/12/16 08:45:39;;;;;;;7.83;5.90;;;;;;;;;;5040439;28;20309;-76
2023/12/16 08:48:06;;;;;;;6.80;6.00;;;;;;;;;;5033863;28;20768;-81
2023/12/16 08:50:34;;;;;;;6.77;5.80;;;;;;;;;;5038032;28;20206;-81
2023/12/16 08:53:01;;;;;;;6.93;5.93;;;;;;;;;;5037975;28;20297;-79
2023/12/16 08:55:28;;;;;;;7.13;5.57;;;;;;;;;;5038428;28;20233;-80
2023/12/16 08:57:56;;;;;;;5.17;4.60;;;;;;;;;;5033407;28;20202;-78
2023/12/16 09:00:24;;;;;;;5.20;4.70;;;;;;;;;;5038773;28;20213;-76
2023/12/16 09:02:51;;;;;;;5.10;4.60;;;;;;;;;;5019397;28;20260;-80
2023/12/16 09:05:19;;;;;;;4.97;4.57;;;;;;;;;;5024798;28;20218;-80
2023/12/16 09:07:47;;;;;;;5.23;4.73;;;;;;;;;;5037084;28;20212;-79
2023/12/16 09:10:14;;;;;;;4.50;4.10;;;;;;;;;;5044174;28;20206;-78
2023/12/16 09:12:41;;;;;;;4.63;4.23;;;;;;;;;;5039346;28;20635;-80
2023/12/16 09:18:58;;;;;;;4.70;4.30;;;;;;;;;;5065083;28;20225;-74
2023/12/16 09:21:54;;;;;;;6.00;4.70;;;;;;;;;;4995559;28;20188;-74
2023/12/16 09:24:22;;;;;;;4.40;4.00;;;;;;;;;;5036473;28;20241;-76
2023/12/16 09:26:49;;;;;;;4.80;4.30;;;;;;;;;;5052190;28;20205;-80
2023/12/16 09:29:16;;;;;;;4.93;4.53;;;;;;;;;;5054531;28;20252;-75
2023/12/16 09:31:47;;;;;;;4.47;4.07;;;;;;;;;;5046438;28;20250;-78
2023/12/16 09:34:15;;;;;;;4.53;4.13;;;;;;;;;;5057418;28;20229;-78
2023/12/16 09:36:44;;;;;;;5.03;4.03;;;;;;;;;;5060153;28;20303;-80
2023/12/16 09:39:11;;;;;;;4.00;3.70;;;;;;;;;;5053957;28;20210;-79
2023/12/16 09:41:42;;;;;;;4.20;3.80;;;;;;;;;;5045664;28;20206;-80
2023/12/16 09:44:10;;;;;;;3.50;3.30;;;;;;;;;;5043453;28;20234;-74
2023/12/16 09:46:37;;;;;;;3.83;3.53;;;;;;;;;;5024768;28;20616;-78
2023/12/16 09:49:05;;;;;;;3.17;2.90;;;;;;;;;;5029655;28;20215;-80
2023/12/16 09:51:32;;;;;;;3.70;2.90;;;;;;;;;;5045361;28;20201;-78
2023/12/16 09:54:00;;;;;;;3.23;2.70;;;;;;;;;;5064329;28;20211;-77
2023/12/16 09:56:28;;;;;;;2.77;2.57;;;;;;;;;;5048266;28;20268;-77
2023/12/16 09:58:56;;;;;;;3.17;2.97;;;;;;;;;;5042525;28;20203;-79
2023/12/16 10:01:25;;;;;;;2.70;2.50;;;;;;;;;;5033953;28;20265;-78
2023/12/16 10:03:56;;;;;;;2.90;2.70;;;;;;;;;;5045466;28;20225;-78
2023/12/16 10:06:24;;;;;;;5.20;3.20;;;;;;;;;;5035714;28;20214;-77
2023/12/16 10:08:51;;;;;;;2.03;1.93;;;;;;;;;;5032495;28;20205;-79
2023/12/16 10:11:18;;;;;;;2.20;2.00;;;;;;;;;;5043661;28;20215;-81
2023/12/16 10:14:03;;;;;;;2.73;2.50;;;;;;;;;;5034189;28;20222;-79
2023/12/16 10:16:31;;;;;;;2.87;2.50;;;;;;;;;;5031913;28;20673;-77
2023/12/16 10:18:59;;;;;;;2.40;2.20;;;;;;;;;;5039042;28;20646;-75
2023/12/16 10:21:28;;;;;;;2.00;1.90;;;;;;;;;;5032792;28;20210;-80
2023/12/16 10:23:59;;;;;;;2.20;2.10;;;;;;;;;;5025140;28;20257;-78
2023/12/16 10:26:30;;;;;;;2.00;1.90;;;;;;;;;;5027117;28;20199;-82
2023/12/16 10:28:58;;;;;;;1.70;1.60;;;;;;;;;;5031611;28;20194;-79
2023/12/16 10:31:25;;;;;;;1.70;1.60;;;;;;;;;;5037039;28;20214;-79
2023/12/16 10:33:52;;;;;;;2.23;2.13;;;;;;;;;;5036116;28;20235;-78
2023/12/16 10:36:20;;;;;;;1.77;1.67;;;;;;;;;;5032918;28;20224;-80
2023/12/16 10:38:48;;;;;;;1.70;1.60;;;;;;;;;;5038246;28;20656;-79
2023/12/16 10:41:15;;;;;;;1.80;1.70;;;;;;;;;;5021739;28;20219;-76
2023/12/16 10:43:42;;;;;;;1.80;1.70;;;;;;;;;;5024887;28;20241;-79
2023/12/16 10:46:12;;;;;;;2.90;2.70;;;;;;;;;;5020439;28;20297;-78
2023/12/16 10:48:39;;;;;;;3.03;2.83;;;;;;;;;;5035277;28;20336;-78
2023/12/16 10:51:08;;;;;;;2.30;2.20;;;;;;;;;;5040752;28;20203;-80
2023/12/16 10:53:41;;;;;;;3.17;2.07;;;;;;;;;;5016210;28;20226;-76
2023/12/16 10:56:16;;;;;;;2.13;1.93;;;;;;;;;;5036353;28;20198;-82
2023/12/16 10:59:01;;;;;;;2.30;2.20;;;;;;;;;;5039292;28;20212;-78
2023/12/16 11:01:29;;;;;;;2.77;2.57;;;;;;;;;;5031453;28;20887;-79
2023/12/16 11:04:01;;;;;;;1.80;1.70;;;;;;;;;;5031084;28;20696;-79
2023/12/16 11:06:35;;;;;;;2.40;2.20;;;;;;;;;;5035079;28;20202;-78
2023/12/16 11:09:04;;;;;;;1.77;1.30;;;;;;;;;;5034254;28;20199;-81
2023/12/16 11:11:31;;;;;;;2.07;1.97;;;;;;;;;;5036477;28;20739;-80
2023/12/16 11:13:59;;;;;;;1.80;1.70;;;;;;;;;;5012411;28;20788;-80
2023/12/16 11:16:46;;;;;;;1.90;1.80;;;;;;;;;;5029603;28;20221;-79
2023/12/16 11:19:15;;;;;;;2.00;1.90;;;;;;;;;;5016020;28;20206;-79
2023/12/16 11:21:43;;;;;;;1.97;1.87;;;;;;;;;;5036140;28;20340;-79
2023/12/16 11:24:10;;;;;;;2.03;1.93;;;;;;;;;;5031816;28;20975;-81
2023/12/16 11:26:38;;;;;;;1.53;1.50;;;;;;;;;;5028448;28;20226;-80
2023/12/16 11:29:05;;;;;;;1.93;1.40;;;;;;;;;;5021359;28;20202;-79
2023/12/16 11:31:33;;;;;;;1.70;1.60;;;;;;;;;;5039604;28;20263;-78
2023/12/16 11:34:02;;;;;;;1.60;1.50;;;;;;;;;;5013551;28;20863;-78
2023/12/16 11:36:52;;;;;;;1.60;1.50;;;;;;;;;;5033997;28;20206;-80
2023/12/16 11:39:39;;;;;;;1.80;1.70;;;;;;;;;;5029726;28;20214;-78
2023/12/16 11:42:08;;;;;;;1.97;1.87;;;;;;;;;;5037746;28;20205;-79
2023/12/16 11:45:05;;;;;;;1.20;1.20;;;;;;;;;;5036780;28;20233;-75
2023/12/16 11:47:32;;;;;;;1.80;1.70;;;;;;;;;;5028760;28;20246;-79
2023/12/16 11:49:59;;;;;;;2.00;1.80;;;;;;;;;;5037329;28;20995;-78
2023/12/16 11:52:27;;;;;;;1.70;1.60;;;;;;;;;;5035976;28;20259;-81
2023/12/16 11:54:55;;;;;;;1.97;1.87;;;;;;;;;;5039314;28;20254;-81
2023/12/16 11:57:23;;;;;;;1.10;1.10;;;;;;;;;;5033498;28;20280;-79
2023/12/16 11:59:53;;;;;;;1.70;1.60;;;;;;;;;;5038623;28;20207;-78
2023/12/16 12:02:20;;;;;;;1.97;1.83;;;;;;;;;;5039203;28;20210;-78
2023/12/16 12:04:48;;;;;;;1.70;1.60;;;;;;;;;;5036003;28;20280;-76
2023/12/16 12:07:16;;;;;;;1.90;1.80;;;;;;;;;;5036849;28;20661;-80
2023/12/16 12:09:44;;;;;;;1.97;1.50;;;;;;;;;;5034365;28;20199;-78
2023/12/16 12:12:12;;;;;;;1.70;1.60;;;;;;;;;;5017547;28;20207;-79
2023/12/16 12:14:45;;;;;;;4.70;3.57;;;;;;;;;;5038338;28;20225;-81
2023/12/16 12:17:12;;;;;;;2.17;1.70;;;;;;;;;;5039984;28;20210;-77
2023/12/16 12:19:42;;;;;;;1.73;1.63;;;;;;;;;;5028460;28;20218;-81
2023/12/16 12:22:09;;;;;;;1.80;1.70;;;;;;;;;;5013130;28;20202;-78
2023/12/16 12:24:37;;;;;;;1.70;1.60;;;;;;;;;;5033656;28;20230;-78
2023/12/16 12:27:04;;;;;;;1.80;1.70;;;;;;;;;;5019290;28;20224;-80
2023/12/16 12:29:50;;;;;;;1.60;1.50;;;;;;;;;;5031532;28;20289;-78
2023/12/16 12:32:17;;;;;;;1.67;1.60;;;;;;;;;;5028161;28;20207;-76
2023/12/16 12:34:44;;;;;;;2.20;1.80;;;;;;;;;;5038001;28;20222;-79
2023/12/16 12:37:12;;;;;;;2.13;1.93;;;;;;;;;;5037858;28;20194;-76
2023/12/16 12:39:41;;;;;;;1.90;1.80;;;;;;;;;;5057559;28;20256;-78
2023/12/16 12:42:08;;;;;;;3.87;3.23;;;;;;;;;;5057859;28;20206;-76
2023/12/16 12:44:37;;;;;;;2.50;2.40;;;;;;;;;;5044963;28;20286;-78
2023/12/16 12:47:04;;;;;;;2.20;2.10;;;;;;;;;;5057688;28;20198;-77
2023/12/16 12:49:35;;;;;;;4.10;2.00;;;;;;;;;;5032602;28;20261;-78
2023/12/16 12:52:03;;;;;;;7.20;2.43;;;;;;;;;;5026404;28;20285;-78
2023/12/16 12:54:44;;;;;;;2.30;2.20;;;;;;;;;;5032064;28;20222;-80
2023/12/16 12:57:18;;;;;;;3.10;2.80;;;;;;;;;;5029865;28;20575;-78
2023/12/16 12:59:46;;;;;;;4.60;3.47;;;;;;;;;;5028094;28;20206;-78
2023/12/16 13:02:30;;;;;;;4.57;4.17;;;;;;;;;;5031726;28;20237;-77
2023/12/16 13:04:57;;;;;;;4.20;3.80;;;;;;;;;;5024597;28;20245;-78
2023/12/16 13:07:25;;;;;;;4.77;3.40;;;;;;;;;;5022622;28;20983;-77
2023/12/16 13:09:52;;;;;;;3.77;3.10;;;;;;;;;;5026701;28;20624;-78
2023/12/16 13:12:21;;;;;;;3.70;3.40;;;;;;;;;;5022642;28;20233;-81
2023/12/16 13:14:48;;;;;;;4.30;3.90;;;;;;;;;;5029774;28;20767;-78
2023/12/16 13:17:16;;;;;;;12.30;8.93;;;;;;;;;;5024270;28;20323;-79
2023/12/16 13:19:43;;;;;;;11.40;8.47;;;;;;;;;;5028510;28;20263;-78
2023/12/16 13:22:10;;;;;;;6.80;5.50;;;;;;;;;;5020515;28;20289;-79
2023/12/16 13:24:38;;;;;;;8.57;5.83;;;;;;;;;;5009831;28;20468;-79
2023/12/16 13:27:05;;;;;;;4.40;3.87;;;;;;;;;;5015895;28;21214;-79
2023/12/16 13:29:32;;;;;;;5.63;5.10;;;;;;;;;;5014134;28;20219;-79
2023/12/16 13:31:59;;;;;;;4.60;4.20;;;;;;;;;;5031086;28;20744;-80
2023/12/16 13:34:27;;;;;;;4.87;4.47;;;;;;;;;;5043400;28;20226;-81
2023/12/16 13:36:54;;;;;;;6.33;5.27;;;;;;;;;;5037092;28;20198;-78
2023/12/16 13:39:24;;;;;;;6.37;5.80;;;;;;;;;;5032613;28;20198;-79
2023/12/16 13:41:51;;;;;;;6.83;6.23;;;;;;;;;;5040315;28;20299;-79
2023/12/16 13:44:19;;;;;;;7.17;5.93;;;;;;;;;;5031642;28;20227;-79
2023/12/16 13:46:46;;;;;;;6.47;5.47;;;;;;;;;;5031319;28;20475;-79
2023/12/16 13:49:14;;;;;;;5.73;5.13;;;;;;;;;;5014827;28;20203;-78
2023/12/16 13:51:41;;;;;;;5.47;4.23;;;;;;;;;;5015764;28;20198;-80
2023/12/16 13:54:08;;;;;;;4.87;4.47;;;;;;;;;;5027996;28;20272;-79
2023/12/16 13:56:37;;;;;;;7.63;6.73;;;;;;;;;;5036849;28;20233;-82
2023/12/16 13:59:04;;;;;;;5.77;4.93;;;;;;;;;;5041214;28;20576;-83
2023/12/16 14:01:31;;;;;;;4.87;4.47;;;;;;;;;;5038116;28;20228;-84
2023/12/16 14:03:59;;;;;;;5.83;4.77;;;;;;;;;;5041037;28;20731;-80
2023/12/16 14:06:26;;;;;;;7.30;6.70;;;;;;;;;;5047317;28;20677;-82
2023/12/16 14:08:54;;;;;;;4.77;4.37;;;;;;;;;;5050643;28;20231;-80
2023/12/16 14:11:21;;;;;;;4.40;4.03;;;;;;;;;;5050294;28;20628;-81
2023/12/16 14:13:48;;;;;;;4.90;4.50;;;;;;;;;;5043300;28;20299;-84
2023/12/16 14:16:16;;;;;;;5.17;4.27;;;;;;;;;;5045708;28;20666;-82
2023/12/16 14:18:57;;;;;;;4.67;4.27;;;;;;;;;;5038537;28;20210;-81
2023/12/16 14:21:24;;;;;;;5.70;4.20;;;;;;;;;;5043441;28;20237;-82
2023/12/16 14:23:51;;;;;;;5.20;4.70;;;;;;;;;;5039709;28;20292;-83
2023/12/16 14:26:19;;;;;;;4.70;4.30;;;;;;;;;;5039902;28;20219;-84
2023/12/16 14:28:46;;;;;;;4.90;4.40;;;;;;;;;;5042475;28;20210;-81
2023/12/16 14:31:13;;;;;;;4.27;3.80;;;;;;;;;;5040363;28;20233;-81
2023/12/16 14:33:41;;;;;;;4.57;4.13;;;;;;;;;;5041792;28;20226;-85
2023/12/16 14:36:08;;;;;;;4.80;4.30;;;;;;;;;;5041816;28;20213;-83
2023/12/16 14:38:36;;;;;;;4.10;3.50;;;;;;;;;;5025267;28;20210;-81
2023/12/16 14:41:04;;;;;;;4.27;3.97;;;;;;;;;;5027865;28;20229;-81
2023/12/16 14:43:31;;;;;;;3.50;3.30;;;;;;;;;;5047768;28;20462;-82
2023/12/16 14:45:58;;;;;;;3.73;3.43;;;;;;;;;;5042506;28;20754;-84
2023/12/16 14:48:25;;;;;;;4.00;3.60;;;;;;;;;;5037801;28;20672;-79
2023/12/16 14:50:53;;;;;;;4.10;3.70;;;;;;;;;;5035715;28;20716;-83